createdAt,value
2023-02-22T00:00:11.965Z,566.22222
2023-02-22T00:05:13.734Z,585.66667
2023-02-22T00:10:15.325Z,542.05825
2023-02-22T00:15:17.145Z,553.90099
2023-02-22T00:20:19.023Z,585.66667
2023-02-22T00:25:20.649Z,572.57143
2023-02-22T00:30:22.439Z,579.05155
2023-02-22T00:35:24.078Z,599.31915
2023-02-22T00:40:25.703Z,592.42105
2023-02-22T00:45:27.412Z,560
2023-02-22T00:50:29.038Z,448.91803
2023-02-22T00:55:30.623Z,547.92157
2023-02-22T01:00:32.270Z,475.03448
2023-02-22T01:05:33.872Z,525.13208
2023-02-22T01:10:35.947Z,509.13761
2023-02-22T01:15:37.634Z,498.95495
2023-02-22T01:20:39.253Z,509.13761
2023-02-22T01:25:40.870Z,536.30769
2023-02-22T01:30:42.685Z,498.95495
2023-02-22T01:35:44.453Z,579.05155
2023-02-22T01:40:46.293Z,553.90099
2023-02-22T01:45:48.053Z,579.05155
2023-02-22T01:50:49.698Z,553.90099
2023-02-22T01:55:51.307Z,530.66667
2023-02-22T02:00:53.017Z,479.65217
2023-02-22T02:05:54.591Z,519.70093
2023-02-22T02:10:56.184Z,542.05825
2023-02-22T02:15:58.070Z,475.03448
2023-02-22T02:20:59.682Z,504
2023-02-22T02:26:01.286Z,448.91803
2023-02-22T02:31:03.009Z,436.8
2023-02-22T02:36:04.618Z,592.42105
2023-02-22T02:41:06.256Z,579.05155
2023-02-22T02:46:07.997Z,519.70093
2023-02-22T02:51:09.613Z,560
2023-02-22T02:56:11.309Z,509.13761
2023-02-22T03:01:13.225Z,525.13208
2023-02-22T03:06:14.867Z,514.37037
2023-02-22T03:11:16.863Z,579.05155
2023-02-22T03:16:18.756Z,509.13761
2023-02-22T03:21:20.454Z,542.05825
2023-02-22T03:26:22.049Z,489.13274
2023-02-22T03:31:24.012Z,644
2023-02-22T03:36:25.643Z,599.31915
2023-02-22T03:41:27.272Z,668.70588
2023-02-22T03:46:29.013Z,652.04598
2023-02-22T03:51:30.736Z,695.21951
2023-02-22T03:56:34.425Z,652.04598
2023-02-22T04:01:36.514Z,592.42105
2023-02-22T04:06:38.159Z,553.90099
2023-02-22T04:11:39.780Z,613.56522
2023-02-22T04:16:41.456Z,560
2023-02-22T04:21:43.078Z,599.31915
2023-02-22T04:26:44.767Z,606.36559
2023-02-22T04:31:46.640Z,566.22222
2023-02-22T04:36:48.268Z,652.04598
2023-02-22T04:41:49.901Z,542.05825
2023-02-22T04:46:51.666Z,592.42105
2023-02-22T04:51:53.293Z,566.22222
2023-02-22T04:56:54.914Z,677.33333
2023-02-22T05:01:56.609Z,695.21951
2023-02-22T05:06:58.289Z,677.33333
2023-02-22T05:11:59.928Z,620.92308
2023-02-22T05:17:01.740Z,644
2023-02-22T05:22:03.443Z,599.31915
2023-02-22T05:27:05.102Z,644
2023-02-22T05:32:06.925Z,644
2023-02-22T05:37:08.639Z,628.44444
2023-02-22T05:42:10.299Z,677.33333
2023-02-22T05:47:12.011Z,652.04598
2023-02-22T05:52:13.601Z,613.56522
2023-02-22T05:57:15.261Z,668.70588
2023-02-22T06:02:17.212Z,660.27907
2023-02-22T06:07:18.995Z,613.56522
2023-02-22T06:12:20.590Z,677.33333
2023-02-22T06:17:22.595Z,644
2023-02-22T06:22:24.207Z,628.44444
2023-02-22T06:27:25.793Z,695.21951
2023-02-22T06:32:27.598Z,652.04598
2023-02-22T06:37:29.364Z,652.04598
2023-02-22T06:42:30.960Z,686.16867
2023-02-22T06:47:32.685Z,723.74684
2023-02-22T06:52:34.289Z,787.83562
2023-02-22T06:57:35.893Z,733.74359
2023-02-22T07:02:37.681Z,744
2023-02-22T07:07:39.322Z,695.21951
2023-02-22T07:12:41.032Z,733.74359
2023-02-22T07:17:42.804Z,799.55556
2023-02-22T07:22:44.431Z,776.43243
2023-02-22T07:27:46.077Z,799.55556
2023-02-22T07:32:47.893Z,787.83562
2023-02-22T07:37:49.572Z,776.43243
2023-02-22T07:42:51.219Z,787.83562
2023-02-22T07:47:52.945Z,776.43243
2023-02-22T07:52:54.580Z,811.60563
2023-02-22T07:57:56.241Z,733.74359
2023-02-22T08:02:58.029Z,733.74359
2023-02-22T08:07:59.656Z,787.83562
2023-02-22T08:13:01.299Z,686.16867
2023-02-22T08:18:03.099Z,776.43243
2023-02-22T08:23:04.700Z,754.52632
2023-02-22T08:28:06.368Z,668.70588
2023-02-22T08:33:08.206Z,677.33333
2023-02-22T08:38:09.905Z,695.21951
2023-02-22T08:43:11.519Z,811.60563
2023-02-22T08:48:13.092Z,754.52632
2023-02-22T08:53:14.708Z,811.60563
2023-02-22T08:58:16.370Z,723.74684
2023-02-22T09:03:18.068Z,585.66667
2023-02-22T09:08:19.890Z,668.70588
2023-02-22T09:13:21.528Z,776.43243
2023-02-22T09:18:23.710Z,776.43243
2023-02-22T09:23:26.086Z,799.55556
2023-02-22T09:28:29.137Z,787.83562
2023-02-22T09:33:30.936Z,799.55556
2023-02-22T09:38:32.613Z,824
2023-02-22T09:43:34.347Z,776.43243
2023-02-22T09:48:36.040Z,849.88235
2023-02-22T09:53:37.764Z,836.75362
2023-02-22T09:58:41.716Z,863.40299
2023-02-22T10:03:43.769Z,891.69231
2023-02-22T10:08:45.567Z,849.88235
2023-02-22T10:13:47.178Z,877.33333
2023-02-22T10:18:48.845Z,799.55556
2023-02-22T10:23:50.422Z,799.55556
2023-02-22T10:28:52.037Z,652.04598
2023-02-22T10:33:53.721Z,754.52632
2023-02-22T10:38:55.351Z,660.27907
2023-02-22T10:43:56.929Z,509.13761
2023-02-22T10:48:58.566Z,723.74684
2023-02-22T10:54:00.262Z,686.16867
2023-02-22T10:59:01.948Z,824
2023-02-22T11:04:03.457Z,799.55556
2023-02-22T11:09:05.042Z,787.83562
2023-02-22T11:14:06.738Z,644
2023-02-22T11:19:08.404Z,811.60563
2023-02-22T11:24:10.255Z,787.83562
2023-02-22T11:29:11.917Z,836.75362
2023-02-22T11:34:13.539Z,877.33333
2023-02-22T11:39:15.176Z,849.88235
2023-02-22T11:44:16.792Z,891.69231
2023-02-22T11:49:18.394Z,906.5
2023-02-22T11:54:20.267Z,891.69231
2023-02-22T11:59:21.961Z,906.5
2023-02-22T12:04:23.612Z,877.33333
2023-02-22T12:09:25.214Z,953.83607
2023-02-22T12:14:26.904Z,906.5
2023-02-22T12:19:28.540Z,849.88235
2023-02-22T12:24:30.177Z,937.54839
2023-02-22T12:29:31.782Z,906.5
2023-02-22T12:34:33.460Z,891.69231
2023-02-22T12:39:47.094Z,824
2023-02-22T12:44:53.856Z,970.66667
2023-02-22T12:49:55.449Z,906.5
2023-02-22T12:54:57.092Z,921.77778
2023-02-22T12:59:58.707Z,921.77778
2023-02-22T13:05:00.385Z,970.66667
2023-02-22T13:10:02.056Z,921.77778
2023-02-22T13:15:03.678Z,906.5
2023-02-22T13:20:05.304Z,988.0678
2023-02-22T13:25:06.898Z,970.66667
2023-02-22T13:30:08.655Z,1006.06897
2023-02-22T13:35:10.347Z,988.0678
2023-02-22T13:40:12.048Z,891.69231
2023-02-22T13:45:13.638Z,921.77778
2023-02-22T13:50:15.385Z,970.66667
2023-02-22T13:55:17.066Z,937.54839
2023-02-22T14:00:18.949Z,863.40299
2023-02-22T14:05:21.056Z,921.77778
2023-02-22T14:10:22.740Z,970.66667
2023-02-22T14:15:29.797Z,1064
2023-02-22T14:20:32.599Z,863.40299
2023-02-22T14:25:34.388Z,799.55556
2023-02-22T14:30:36.150Z,744
2023-02-22T14:35:49.187Z,836.75362
2023-02-22T14:40:51.873Z,799.55556
2023-02-22T14:45:53.834Z,937.54839
2023-02-22T14:50:55.697Z,906.5
2023-02-22T14:55:57.272Z,988.0678
2023-02-22T15:00:58.879Z,849.88235
2023-02-22T15:06:00.489Z,799.55556
2023-02-22T15:11:02.081Z,891.69231
2023-02-22T15:16:03.748Z,733.74359
2023-02-22T15:21:06.938Z,906.5
2023-02-22T15:26:08.733Z,921.77778
2023-02-22T15:31:10.379Z,953.83607
2023-02-22T15:36:12.007Z,849.88235
2023-02-22T15:41:13.621Z,988.0678
2023-02-22T15:46:15.304Z,906.5
2023-02-22T15:51:17.243Z,1006.06897
2023-02-22T15:56:19.030Z,906.5
2023-02-22T16:01:21.302Z,1044
2023-02-22T16:06:23.336Z,970.66667
2023-02-22T16:11:25.002Z,953.83607
2023-02-22T16:16:26.775Z,953.83607
2023-02-22T16:21:28.404Z,937.54839
2023-02-22T16:26:29.998Z,988.0678
2023-02-22T16:31:31.655Z,988.0678
2023-02-22T16:36:33.336Z,906.5
2023-02-22T16:41:34.953Z,1006.06897
2023-02-22T16:46:36.818Z,988.0678
2023-02-22T16:51:38.444Z,953.83607
2023-02-22T16:56:40.089Z,891.69231
2023-02-22T17:01:41.733Z,877.33333
2023-02-22T17:06:43.346Z,891.69231
2023-02-22T17:11:44.989Z,921.77778
2023-02-22T17:16:46.601Z,937.54839
2023-02-22T17:21:48.281Z,970.66667
2023-02-22T17:26:49.922Z,906.5
2023-02-22T17:31:51.548Z,937.54839
2023-02-22T17:36:53.175Z,849.88235
2023-02-22T17:41:54.931Z,970.66667
2023-02-22T17:46:56.572Z,906.5
2023-02-22T17:51:58.209Z,877.33333
2023-02-22T17:56:59.828Z,836.75362
2023-02-22T18:02:01.534Z,906.5
2023-02-22T18:07:03.138Z,877.33333
2023-02-22T18:12:05.022Z,937.54839
2023-02-22T18:17:06.597Z,877.33333
2023-02-22T18:22:08.205Z,891.69231
2023-02-22T18:27:09.793Z,863.40299
2023-02-22T18:32:11.417Z,891.69231
2023-02-22T18:37:13.136Z,863.40299
2023-02-22T18:42:14.867Z,877.33333
2023-02-22T18:47:16.488Z,863.40299
2023-02-22T18:52:18.139Z,877.33333
2023-02-22T18:57:19.741Z,849.88235
2023-02-22T19:02:21.372Z,863.40299
2023-02-22T19:07:23.012Z,891.69231
2023-02-22T19:12:24.640Z,877.33333
2023-02-22T19:17:26.302Z,849.88235
2023-02-22T19:22:28.020Z,863.40299
2023-02-22T19:27:29.653Z,824
2023-02-22T19:32:31.368Z,863.40299
2023-02-22T19:37:33.002Z,836.75362
2023-02-22T19:42:34.587Z,877.33333
2023-02-22T19:47:36.216Z,836.75362
2023-02-22T19:52:38.045Z,799.55556
2023-02-22T19:57:39.632Z,849.88235
2023-02-22T20:02:41.288Z,836.75362
2023-02-22T20:07:42.890Z,836.75362
2023-02-22T20:12:44.489Z,799.55556
2023-02-22T20:17:46.127Z,836.75362
2023-02-22T20:22:47.734Z,799.55556
2023-02-22T20:27:49.311Z,811.60563
2023-02-22T20:32:51.558Z,824
2023-02-22T20:37:53.360Z,836.75362
2023-02-22T20:42:55.017Z,863.40299
2023-02-22T20:47:56.622Z,824
2023-02-22T20:52:58.247Z,849.88235
2023-02-22T20:57:59.942Z,863.40299
2023-02-22T21:03:01.576Z,836.75362
2023-02-22T21:08:03.208Z,836.75362
2023-02-22T21:13:05.638Z,891.69231
2023-02-22T21:18:09.967Z,811.60563
2023-02-22T21:23:11.553Z,863.40299
2023-02-22T21:28:13.291Z,877.33333
2023-02-22T21:33:14.985Z,953.83607
2023-02-22T21:38:16.613Z,877.33333
2023-02-22T21:43:18.287Z,836.75362
2023-02-22T21:48:19.986Z,891.69231
2023-02-22T21:53:21.589Z,891.69231
2023-02-22T21:58:23.345Z,970.66667
2023-02-22T22:03:25.006Z,849.88235
2023-02-22T22:08:26.758Z,921.77778
2023-02-22T22:13:28.408Z,891.69231
2023-02-22T22:18:30.131Z,937.54839
2023-02-22T22:23:31.818Z,970.66667
2023-02-22T22:28:33.436Z,1006.06897
2023-02-22T22:33:35.056Z,1006.06897
2023-02-22T22:38:36.769Z,921.77778
2023-02-22T22:43:38.423Z,877.33333
2023-02-22T22:48:40.072Z,953.83607
2023-02-22T22:53:41.705Z,970.66667
2023-02-22T22:58:43.386Z,937.54839
2023-02-22T23:03:45.086Z,921.77778
2023-02-22T23:08:46.801Z,937.54839
2023-02-22T23:13:48.426Z,921.77778
2023-02-22T23:18:50.202Z,906.5
2023-02-22T23:23:51.843Z,906.5
2023-02-22T23:28:53.487Z,921.77778
2023-02-22T23:33:55.089Z,1044
2023-02-22T23:38:56.753Z,937.54839
2023-02-22T23:43:58.440Z,970.66667
2023-02-22T23:49:00.108Z,953.83607
2023-02-22T23:54:01.819Z,906.5
2023-02-22T23:59:03.449Z,921.77778
